Terminal Aerodrome Forecast
Issued by NWS

Home | Current Version | Previous Version | Text Only | Print | Product List | Glossary On
Versions: 1 2 3 4 5 6 7 8 9 10 11 12 13 14 15
212
FTUS43 KFGF 241121 AAA
TAFDVL
TAF AMD
KDVL 241121Z 2411/2512 VRB04KT P6SM BKN200
     FM250900 11005KT P6SM BKN110=

USA.gov is the U.S. government's official web portal to all federal, state and local government web resources and services.